Time;durP1;ratioP1;P1;durP2;ratioP2;P2;SDS_P1;SDS_P2;PMS_P1;PMS_P2;Temp;Humidity;BMP_temperature;BMP_pressure;BME280_temperature;BME280_humidity;BME280_pressure;Samples;Min_cycle;Max_cycle;Signal;HPM_P1;HPM_P2
2022/02/09 00:03:38;;;;;;;11.68;7.72;;;;;;;1.99;78.62;99351.75;1676916;84;21019;-90
2022/02/09 00:06:07;;;;;;;14.68;8.35;;;;;;;2.02;78.66;99353.98;1711398;82;21503;-87
2022/02/09 00:08:32;;;;;;;14.53;8.58;;;;;;;2.03;78.79;99345.02;1708553;82;21013;-88
2022/02/09 00:11:02;;;;;;;13.38;8.95;;;;;;;1.99;78.99;99341.66;1732881;82;21124;-87
2022/02/09 00:13:48;;;;;;;15.40;9.68;;;;;;;2.00;79.16;99353.39;1707666;82;20979;-88
2022/02/09 00:18:58;;;;;;;11.63;7.67;;;;;;;2.02;79.27;99333.28;1670809;82;20954;-89
2022/02/09 00:24:26;;;;;;;14.68;8.30;;;;;;;2.08;79.31;99333.80;1707703;82;21035;-74
2022/02/09 00:27:08;;;;;;;13.43;8.65;;;;;;;2.08;79.27;99329.82;1728835;82;21014;-75
2022/02/09 00:29:35;;;;;;;15.90;8.68;;;;;;;2.11;79.31;99329.44;1728973;82;22056;-74
2022/02/09 00:34:44;;;;;;;14.33;8.35;;;;;;;2.12;79.33;99333.69;1732699;82;21018;-75
2022/02/09 00:42:41;;;;;;;12.73;7.58;;;;;;;2.04;79.62;99319.31;1732614;82;20981;-75
2022/02/09 01:33:04;;;;;;;11.78;7.67;;;;;;;2.12;79.98;99296.56;1731158;82;21066;-74
2022/02/09 01:55:51;;;;;;;21.55;8.63;;;;;;;2.00;83.19;99260.58;1701898;83;21039;-78
2022/02/09 01:58:22;;;;;;;13.60;8.33;;;;;;;2.01;83.58;99260.06;1726647;83;21146;-77
2022/02/09 02:00:49;;;;;;;18.77;8.93;;;;;;;2.02;83.79;99259.84;1731619;82;21010;-80
2022/02/09 02:03:15;;;;;;;19.20;8.28;;;;;;;2.04;84.05;99263.63;1732291;82;21676;-78
2022/02/09 02:05:43;;;;;;;20.10;8.43;;;;;;;2.04;84.36;99261.80;1732508;82;21053;-86
2022/02/09 02:08:11;;;;;;;22.52;9.73;;;;;;;2.02;84.56;99263.82;1733401;81;21686;-78
2022/02/09 02:10:48;;;;;;;18.82;8.88;;;;;;;1.99;84.84;99262.09;1709105;81;21338;-80
2022/02/09 02:13:28;;;;;;;12.60;8.00;;;;;;;2.02;85.16;99264.33;1732451;82;20970;-79
2022/02/09 02:18:12;;;;;;;16.67;9.43;;;;;;;1.96;85.76;99258.03;1721881;82;21111;-82
2022/02/09 02:21:35;;;;;;;12.43;7.78;;;;;;;1.92;86.18;99253.34;1724498;83;21002;-81
2022/02/09 02:23:34;;;;;;;26.15;11.55;;;;;;;1.92;86.47;99254.67;1669314;84;21091;-85
2022/02/09 02:26:37;;;;;;;18.07;9.58;;;;;;;1.93;86.72;99250.47;1675132;84;21014;-84
2022/02/09 02:28:39;;;;;;;15.35;10.55;;;;;;;1.92;86.93;99256.00;1679103;84;20923;-84
2022/02/09 02:31:16;;;;;;;11.60;8.33;;;;;;;1.93;87.27;99256.28;1709395;82;21114;-83
2022/02/09 02:33:57;;;;;;;17.35;9.00;;;;;;;1.96;87.57;99251.91;1691098;84;21012;-82
2022/02/09 02:36:49;;;;;;;23.65;11.38;;;;;;;2.00;87.75;99259.75;1700999;83;21095;-84
2022/02/09 02:44:16;;;;;;;13.55;9.75;;;;;;;2.01;87.96;99252.11;1724743;83;20935;-87
2022/02/09 02:47:14;;;;;;;13.50;8.48;;;;;;;1.98;88.10;99252.00;1690353;84;21493;-81
2022/02/09 03:13:08;;;;;;;14.83;9.05;;;;;;;1.92;89.97;99263.41;1724552;83;21086;-83
2022/02/09 03:15:42;;;;;;;16.02;9.08;;;;;;;1.89;90.10;99262.51;1691809;84;21534;-86
2022/02/09 03:21:00;;;;;;;15.10;9.50;;;;;;;1.84;90.38;99264.13;1730372;83;20923;-86
2022/02/09 03:31:22;;;;;;;14.47;9.95;;;;;;;1.99;90.88;99267.40;1710270;83;21023;-84
2022/02/09 03:49:43;;;;;;;10.88;8.70;;;;;;;1.99;91.47;99284.13;1710146;82;21073;-83
2022/02/09 03:52:34;;;;;;;14.23;8.08;;;;;;;2.00;91.40;99279.14;1729065;82;20979;-83
2022/02/09 03:54:54;;;;;;;14.00;9.05;;;;;;;2.03;91.45;99280.05;1727171;83;21069;-83
2022/02/09 03:57:23;;;;;;;12.03;8.03;;;;;;;2.03;91.44;99281.37;1728887;82;20935;-83
2022/02/09 03:59:38;;;;;;;11.53;7.33;;;;;;;2.04;91.62;99281.69;1709519;83;20974;-82
2022/02/09 04:02:06;;;;;;;10.43;8.13;;;;;;;2.04;91.72;99283.52;1730707;82;21053;-80
2022/02/09 04:04:33;;;;;;;13.62;8.10;;;;;;;2.06;91.82;99284.14;1709924;83;21058;-82
2022/02/09 04:07:00;;;;;;;12.60;8.18;;;;;;;2.05;92.01;99290.45;1709722;82;21050;-83
2022/02/09 04:09:30;;;;;;;9.68;6.80;;;;;;;2.03;92.21;99283.20;1730618;83;20915;-82
2022/02/09 04:12:13;;;;;;;12.28;7.95;;;;;;;2.02;92.33;99286.36;1710057;82;21110;-86
2022/02/09 04:14:54;;;;;;;10.10;6.47;;;;;;;1.98;92.86;99295.75;1729752;82;21451;-84
2022/02/09 04:17:24;;;;;;;11.15;8.13;;;;;;;1.95;92.99;99280.26;1729899;82;21599;-87
2022/02/09 04:20:07;;;;;;;11.22;6.42;;;;;;;1.94;93.32;99280.45;1688172;83;21246;-85
2022/02/09 04:41:26;;;;;;;8.08;5.70;;;;;;;2.00;95.11;99295.05;1730994;82;21078;-88
2022/02/09 04:44:14;;;;;;;7.40;6.25;;;;;;;2.02;95.14;99301.45;1729474;82;20991;-78
2022/02/09 04:49:08;;;;;;;9.45;8.40;;;;;;;1.98;95.29;99307.69;1718976;83;21617;-87
2022/02/09 04:51:29;;;;;;;7.15;6.42;;;;;;;1.95;95.56;99305.45;1710077;82;20943;-92
2022/02/09 05:18:31;;;;;;;10.03;6.92;;;;;;;1.87;98.32;99338.77;1725392;83;21046;-87
2022/02/09 05:25:45;;;;;;;9.00;8.10;;;;;;;1.86;98.88;99349.60;1725018;83;21835;-83
2022/02/09 05:28:15;;;;;;;9.95;6.83;;;;;;;1.84;98.94;99347.64;1704081;83;21035;-82
2022/02/09 05:30:39;;;;;;;7.70;6.45;;;;;;;1.87;99.09;99353.36;1724784;83;21642;-81
2022/02/09 05:33:05;;;;;;;11.78;7.47;;;;;;;1.88;99.29;99355.50;1725463;83;21035;-84
2022/02/09 05:35:34;;;;;;;13.10;7.17;;;;;;;1.89;99.59;99351.33;1725363;83;20938;-85
2022/02/09 05:38:01;;;;;;;8.50;6.72;;;;;;;1.90;99.68;99350.32;1704448;83;21071;-86
2022/02/09 05:40:29;;;;;;;11.50;7.67;;;;;;;1.90;99.82;99365.41;1704165;83;20974;-86
2022/02/09 05:42:57;;;;;;;10.70;8.60;;;;;;;1.88;100.00;99360.80;1704845;83;21002;-86
2022/02/09 05:45:28;;;;;;;9.65;7.78;;;;;;;1.89;100.00;99363.77;1724855;83;21056;-88
2022/02/09 05:51:04;;;;;;;12.65;7.60;;;;;;;1.92;100.00;99364.17;1708108;83;21090;-93
2022/02/09 05:53:15;;;;;;;9.75;7.25;;;;;;;1.96;100.00;99370.73;1701806;83;20968;-87
2022/02/09 05:55:51;;;;;;;8.80;7.42;;;;;;;2.01;100.00;99380.73;1725009;83;20940;-92
2022/02/09 05:58:35;;;;;;;11.70;7.87;;;;;;;2.04;100.00;99380.31;1704300;83;21524;-90
2022/02/09 06:00:50;;;;;;;10.32;7.22;;;;;;;2.03;100.00;99380.83;1724287;83;20993;-94
2022/02/09 06:03:19;;;;;;;12.35;8.35;;;;;;;2.02;100.00;99379.19;1725898;83;21133;-94
2022/02/09 06:05:47;;;;;;;11.93;7.92;;;;;;;2.04;100.00;99386.95;1704547;83;21067;-91
2022/02/09 06:08:16;;;;;;;9.95;8.38;;;;;;;2.06;100.00;99395.00;1724910;83;21109;-87
2022/02/09 06:10:51;;;;;;;6.97;6.25;;;;;;;2.11;100.00;99399.19;1704662;83;21156;-92
2022/02/09 06:13:42;;;;;;;9.30;7.67;;;;;;;2.15;100.00;99393.81;1703964;83;21059;-90
2022/02/09 06:16:12;;;;;;;12.20;7.42;;;;;;;2.17;100.00;99385.12;1722223;81;21101;-93
2022/02/09 06:21:22;;;;;;;9.13;8.05;;;;;;;2.25;100.00;99402.69;1724981;82;21054;-91
2022/02/09 06:23:48;;;;;;;10.03;6.58;;;;;;;2.27;100.00;99400.64;1702911;83;21021;-80
2022/02/09 06:26:16;;;;;;;7.47;6.20;;;;;;;2.32;100.00;99404.83;1704002;83;21015;-83
2022/02/09 06:28:44;;;;;;;7.95;6.40;;;;;;;2.34;100.00;99415.24;1725431;83;21072;-81
2022/02/09 06:31:10;;;;;;;10.65;7.05;;;;;;;2.36;100.00;99415.84;1703781;83;21557;-77
2022/02/09 06:33:36;;;;;;;8.10;7.25;;;;;;;2.41;100.00;99423.50;1725175;83;20993;-83
2022/02/09 06:36:07;;;;;;;7.80;6.65;;;;;;;2.44;100.00;99415.66;1725154;83;21056;-81
2022/02/09 06:38:38;;;;;;;7.47;6.33;;;;;;;2.48;100.00;99426.17;1681820;83;20992;-84
2022/02/09 06:41:00;;;;;;;11.48;8.20;;;;;;;2.49;100.00;99418.52;1724653;83;21583;-85
2022/02/09 06:43:29;;;;;;;9.15;6.78;;;;;;;2.51;100.00;99429.22;1725593;83;20994;-81
2022/02/09 06:45:57;;;;;;;7.90;5.78;;;;;;;2.55;100.00;99432.28;1725363;83;20975;-82
2022/02/09 06:48:24;;;;;;;8.70;6.80;;;;;;;2.59;100.00;99434.32;1725374;83;21018;-80
2022/02/09 06:50:56;;;;;;;8.80;6.40;;;;;;;2.62;100.00;99437.09;1704036;83;21512;-79
2022/02/09 06:56:03;;;;;;;8.45;6.80;;;;;;;2.68;100.00;99446.08;1724974;83;20984;-82
2022/02/09 07:01:03;;;;;;;11.33;7.45;;;;;;;2.71;100.00;99447.80;1725553;83;21090;-92
2022/02/09 07:03:34;;;;;;;10.32;7.45;;;;;;;2.75;100.00;99445.05;1704934;83;20935;-93
2022/02/09 07:06:06;;;;;;;13.45;8.90;;;;;;;2.76;100.00;99449.84;1704113;83;21948;-91
2022/02/09 07:08:33;;;;;;;11.88;7.80;;;;;;;2.78;100.00;99453.91;1724710;83;20986;-95
2022/02/09 07:11:04;;;;;;;9.70;7.33;;;;;;;2.81;100.00;99450.87;1695305;84;21041;-91
2022/02/09 07:13:35;;;;;;;8.63;6.17;;;;;;;2.88;100.00;99453.50;1674195;84;20991;-92
2022/02/09 07:16:08;;;;;;;8.25;6.62;;;;;;;2.91;100.00;99457.91;1679850;83;21199;-88
2022/02/09 07:18:38;;;;;;;11.03;8.23;;;;;;;2.93;100.00;99466.98;1678861;83;21304;-86
2022/02/09 07:21:10;;;;;;;10.63;7.40;;;;;;;2.93;100.00;99453.70;1691083;81;21485;-86
2022/02/09 07:28:49;;;;;;;10.70;7.85;;;;;;;2.99;100.00;99478.94;1754368;81;20956;-86
2022/02/09 07:31:18;;;;;;;9.88;7.15;;;;;;;3.05;100.00;99475.47;1753469;81;21098;-88
2022/02/09 07:33:45;;;;;;;8.80;7.42;;;;;;;3.09;100.00;99474.53;1754135;81;20940;-86
2022/02/09 07:36:14;;;;;;;9.15;7.10;;;;;;;3.13;100.00;99489.54;1708702;81;21094;-85
2022/02/09 07:38:41;;;;;;;10.58;6.47;;;;;;;3.16;100.00;99480.66;1754053;81;20955;-84
2022/02/09 07:41:09;;;;;;;7.42;5.47;;;;;;;3.18;100.00;99492.39;1732210;81;20948;-87
2022/02/09 07:54:00;;;;;;;10.63;6.28;;;;;;;3.27;99.44;99499.94;1733303;81;20988;-83
2022/02/09 07:56:36;;;;;;;10.08;5.75;;;;;;;3.32;99.23;99500.14;1732532;81;21007;-86
2022/02/09 07:59:09;;;;;;;11.95;5.95;;;;;;;3.37;99.04;99489.70;1753865;81;21078;-90
2022/02/09 08:01:35;;;;;;;9.68;5.67;;;;;;;3.40;98.75;99506.58;1732268;81;21028;-84
2022/02/09 08:04:02;;;;;;;9.43;6.35;;;;;;;3.42;98.57;99497.05;1753570;81;21036;-84
2022/02/09 08:06:29;;;;;;;7.37;6.10;;;;;;;3.46;98.49;99502.25;1753441;81;20963;-84
2022/02/09 08:09:01;;;;;;;9.95;7.08;;;;;;;3.49;98.30;99521.79;1732545;81;21109;-75
2022/02/09 08:11:58;;;;;;;13.32;6.85;;;;;;;3.52;98.07;99513.39;1753118;81;21076;-82
2022/02/09 08:33:16;;;;;;;12.30;5.15;;;;;;;3.78;96.15;99527.95;1753547;81;21099;-79
2022/02/09 08:35:36;;;;;;;7.05;5.65;;;;;;;3.80;95.77;99515.23;1752485;81;21180;-78
2022/02/09 08:38:05;;;;;;;7.53;4.28;;;;;;;3.82;95.35;99529.16;1753427;81;20976;-75
2022/02/09 08:40:31;;;;;;;8.68;4.30;;;;;;;3.84;95.09;99546.22;1732255;81;21042;-79
2022/02/09 08:42:59;;;;;;;8.98;5.75;;;;;;;3.85;94.82;99535.89;1732485;81;21082;-81
2022/02/09 08:45:26;;;;;;;8.00;4.60;;;;;;;3.86;94.71;99545.00;1754467;81;21380;-81
2022/02/09 08:47:56;;;;;;;5.00;3.80;;;;;;;3.88;94.52;99535.48;1685199;81;21555;-82
2022/02/09 08:50:23;;;;;;;8.73;4.35;;;;;;;3.92;94.34;99574.76;1753859;81;20940;-79
2022/02/09 08:52:50;;;;;;;10.30;4.72;;;;;;;3.93;93.75;99548.44;1734739;81;20928;-82
2022/02/09 08:55:17;;;;;;;15.38;5.97;;;;;;;3.97;93.63;99545.38;1753862;81;21020;-81
2022/02/09 08:57:45;;;;;;;10.25;4.25;;;;;;;3.95;93.11;99581.49;1753808;81;20948;-79
2022/02/09 09:00:23;;;;;;;7.78;4.15;;;;;;;3.96;93.06;99564.51;1753896;81;21168;-80
2022/02/09 09:02:53;;;;;;;8.70;3.83;;;;;;;3.97;92.97;99546.19;1733730;81;21102;-77
2022/02/09 09:05:22;;;;;;;7.60;3.80;;;;;;;3.99;92.25;99552.61;1753232;81;20961;-79
2022/02/09 09:07:51;;;;;;;6.85;4.20;;;;;;;4.02;92.03;99554.88;1752829;81;21038;-77
2022/02/09 09:10:24;;;;;;;7.42;5.05;;;;;;;4.05;91.60;99553.93;1731780;81;21036;-79
2022/02/09 10:02:09;;;;;;;3.12;2.30;;;;;;;4.66;80.58;99579.52;1753502;81;21017;-78
2022/02/09 10:04:45;;;;;;;12.28;5.60;;;;;;;4.74;80.18;99580.62;1752010;81;21021;-77
2022/02/09 10:32:50;;;;;;;3.87;2.35;;;;;;;4.87;74.94;99591.69;1719013;82;20979;-80
2022/02/09 10:35:27;;;;;;;3.77;2.95;;;;;;;4.87;74.94;99591.69;1739274;82;22039;-82
2022/02/09 10:37:46;;;;;;;14.05;6.87;;;;;;;4.92;75.51;99594.53;1738929;82;20966;-79
2022/02/09 10:40:34;;;;;;;15.15;5.50;;;;;;;4.95;73.27;99596.75;1714495;82;21558;-79
2022/02/09 10:43:03;;;;;;;10.75;3.72;;;;;;;4.95;71.52;99594.09;1740240;82;21042;-78
2022/02/09 10:45:37;;;;;;;3.83;1.80;;;;;;;4.99;71.03;99605.95;1740095;82;21551;-79
2022/02/09 10:48:05;;;;;;;3.58;2.15;;;;;;;5.02;70.54;99602.87;1715707;82;21305;-80
2022/02/09 10:50:38;;;;;;;7.03;3.00;;;;;;;5.08;70.96;99629.18;1739776;81;21010;-83
2022/02/09 10:53:07;;;;;;;8.73;4.50;;;;;;;5.12;69.71;99610.39;1739854;82;21050;-81
2022/02/09 10:55:40;;;;;;;8.08;3.92;;;;;;;5.10;68.69;99635.09;1739550;82;21542;-77
2022/02/09 10:58:24;;;;;;;8.90;5.53;;;;;;;5.07;68.75;99631.54;1715229;82;21104;-78
2022/02/09 11:00:51;;;;;;;22.37;11.70;;;;;;;5.05;69.13;99622.92;1713075;82;21132;-78
2022/02/09 11:03:21;;;;;;;10.55;5.95;;;;;;;5.04;69.30;99614.63;1714751;82;20913;-78
2022/02/09 11:05:51;;;;;;;5.90;3.47;;;;;;;5.06;69.50;99616.06;1713861;78;33485;-76
2022/02/09 11:08:18;;;;;;;7.17;4.47;;;;;;;5.08;70.46;99617.19;1800150;78;20982;-74
2022/02/09 11:10:50;;;;;;;5.78;2.80;;;;;;;5.11;71.16;99621.56;1785937;80;21048;-76
2022/02/09 11:13:15;;;;;;;9.08;2.65;;;;;;;5.17;71.67;99617.22;1785506;80;21283;-77
2022/02/09 11:15:48;;;;;;;2.30;1.60;;;;;;;5.22;71.73;99630.20;1762719;80;20895;-71
2022/02/09 11:18:21;;;;;;;4.10;2.05;;;;;;;5.26;71.25;99623.91;1785900;79;21574;-78
2022/02/09 11:21:08;;;;;;;4.70;2.37;;;;;;;5.30;71.31;99629.63;1763479;80;21070;-80
2022/02/09 11:23:56;;;;;;;6.55;1.85;;;;;;;5.27;71.49;99630.89;1778402;80;21502;-75
2022/02/09 11:29:34;;;;;;;4.60;1.87;;;;;;;5.25;71.63;99634.27;1763960;80;21016;-82
2022/02/09 11:32:14;;;;;;;3.35;2.00;;;;;;;5.22;71.47;99644.87;1784537;80;21067;-86
2022/02/09 11:35:09;;;;;;;4.75;1.90;;;;;;;5.16;71.08;99659.56;1785850;80;21003;-86
2022/02/09 11:40:49;;;;;;;7.12;2.20;;;;;;;5.14;70.75;99660.28;1755396;81;21494;-87
2022/02/09 11:43:36;;;;;;;5.97;2.10;;;;;;;5.15;71.14;99666.74;1754208;81;20946;-81
2022/02/09 11:52:06;;;;;;;8.60;3.25;;;;;;;5.26;70.85;99666.58;1786285;80;21005;-85
2022/02/09 11:58:03;;;;;;;7.37;2.33;;;;;;;5.36;69.99;99677.58;1785898;80;20982;-86
2022/02/09 12:00:12;;;;;;;3.10;2.60;;;;;;;5.39;68.88;99689.66;1784830;80;21547;-85
2022/02/09 12:11:38;;;;;;;4.37;2.40;;;;;;;5.78;66.62;99669.84;1786036;80;20938;-75
2022/02/09 12:14:19;;;;;;;6.95;2.85;;;;;;;5.73;66.42;99694.52;1789965;80;21522;-73
2022/02/09 12:17:14;;;;;;;7.22;2.47;;;;;;;5.68;66.73;99677.83;1784044;80;21040;-75
2022/02/09 12:19:26;;;;;;;9.78;5.40;;;;;;;5.67;66.75;99682.04;1786569;79;20954;-74
2022/02/09 12:21:59;;;;;;;7.20;3.62;;;;;;;5.74;66.88;99701.50;1764809;80;21009;-82
2022/02/09 12:24:34;;;;;;;9.05;3.45;;;;;;;5.85;66.64;99699.43;1762690;80;22224;-82
2022/02/09 12:27:09;;;;;;;7.67;4.40;;;;;;;5.92;66.01;99693.56;1781692;80;20978;-83
2022/02/09 12:29:49;;;;;;;5.08;3.08;;;;;;;6.01;65.51;99716.27;1735265;81;21008;-89
2022/02/09 12:32:29;;;;;;;7.70;3.22;;;;;;;6.09;65.42;99699.16;1786037;80;20934;-85
2022/02/09 12:35:06;;;;;;;6.47;2.27;;;;;;;6.17;65.42;99701.53;1786537;80;21028;-87
2022/02/09 12:37:52;;;;;;;6.78;3.87;;;;;;;6.26;64.90;99714.90;1752169;80;20922;-84
2022/02/09 12:40:33;;;;;;;7.62;3.52;;;;;;;6.37;64.82;99706.16;1756063;81;20963;-88
2022/02/09 12:42:58;;;;;;;7.25;3.55;;;;;;;6.44;63.95;99704.22;1785635;80;20974;-80
2022/02/09 12:45:29;;;;;;;8.93;3.55;;;;;;;6.40;63.75;99704.89;1786582;80;20994;-79
2022/02/09 12:48:00;;;;;;;5.75;3.37;;;;;;;6.39;63.51;99731.30;1786249;80;21117;-78
2022/02/09 12:50:37;;;;;;;12.05;4.05;;;;;;;6.38;63.27;99722.46;1786211;80;21038;-84
2022/02/09 12:53:07;;;;;;;6.37;4.55;;;;;;;6.39;63.53;99704.06;1734261;81;20946;-83
2022/02/09 12:55:38;;;;;;;6.67;3.55;;;;;;;6.44;63.34;99707.41;1755237;81;21022;-81
2022/02/09 12:58:11;;;;;;;7.10;3.58;;;;;;;6.50;63.03;99722.03;1755736;80;21069;-74
2022/02/09 13:00:46;;;;;;;3.87;2.77;;;;;;;6.53;63.13;99710.89;1786283;80;21183;-85
2022/02/09 13:03:16;;;;;;;5.80;2.65;;;;;;;6.62;62.72;99713.29;1754898;81;21065;-81
2022/02/09 13:05:46;;;;;;;7.53;2.90;;;;;;;6.56;62.23;99711.80;1768226;80;21081;-79
2022/02/09 13:08:26;;;;;;;6.65;2.92;;;;;;;6.51;62.34;99726.86;1785894;80;20987;-75
2022/02/09 13:11:27;;;;;;;3.87;2.62;;;;;;;6.46;62.18;99720.03;1759507;80;21085;-86
2022/02/09 13:13:52;;;;;;;5.40;3.02;;;;;;;6.44;62.53;99716.23;1754054;81;21178;-89
2022/02/09 14:05:25;;;;;;;7.83;4.15;;;;;;;6.22;62.44;99780.47;1756918;81;21120;-75
2022/02/09 14:34:44;;;;;;;6.42;3.65;;;;;;;5.46;64.83;99805.13;1761870;80;21070;-77
2022/02/09 14:55:03;;;;;;;6.92;3.17;;;;;;;5.09;66.46;99838.20;1771326;80;21484;-77
2022/02/09 14:57:32;;;;;;;3.22;2.40;;;;;;;5.06;66.05;99835.96;1771524;80;21523;-75
2022/02/09 15:02:50;;;;;;;8.28;2.70;;;;;;;4.94;66.29;99832.84;1771358;80;21081;-84
2022/02/09 15:07:42;;;;;;;6.08;2.58;;;;;;;4.82;66.65;99857.97;1771043;81;20970;-77
2022/02/09 15:10:05;;;;;;;10.28;3.10;;;;;;;4.78;66.78;99884.72;1753297;81;21019;-80
2022/02/09 15:12:34;;;;;;;7.20;3.20;;;;;;;4.72;66.89;99855.73;1769860;80;21082;-77
2022/02/09 15:22:36;;;;;;;6.55;3.10;;;;;;;4.51;67.63;99879.13;1753632;81;20974;-73
2022/02/09 15:25:09;;;;;;;10.00;5.20;;;;;;;4.46;67.74;99882.38;1771141;80;21082;-87
2022/02/09 15:27:30;;;;;;;10.95;3.72;;;;;;;4.42;67.89;99883.81;1753338;81;21113;-87
2022/02/09 15:29:57;;;;;;;16.42;5.33;;;;;;;4.37;68.11;99878.28;1771453;80;21120;-87
2022/02/09 15:32:32;;;;;;;7.72;5.00;;;;;;;4.31;68.32;99879.95;1754761;81;20900;-84
2022/02/09 15:34:59;;;;;;;7.17;3.42;;;;;;;4.29;68.45;99880.66;1772117;80;20964;-82
2022/02/09 15:39:54;;;;;;;9.28;4.33;;;;;;;4.25;68.82;99897.23;1755108;81;21551;-80
2022/02/09 16:09:32;;;;;;;13.62;5.10;;;;;;;4.02;70.38;99942.05;1788447;79;20970;-92
2022/02/09 16:33:22;;;;;;;8.55;4.83;;;;;;;3.91;70.82;99963.40;1771369;81;21133;-88
2022/02/09 16:46:24;;;;;;;13.00;5.80;;;;;;;3.84;71.16;99988.64;1769000;79;21148;-76
2022/02/09 16:49:01;;;;;;;11.48;5.87;;;;;;;3.84;71.20;99974.52;1771090;80;20979;-78
2022/02/09 16:51:24;;;;;;;11.63;6.28;;;;;;;3.81;71.29;99983.73;1771150;80;21508;-79
2022/02/09 17:15:44;;;;;;;15.55;7.42;;;;;;;3.70;71.89;100010.06;1753286;81;20943;-76
2022/02/09 17:20:49;;;;;;;12.75;5.58;;;;;;;3.70;72.04;100010.88;1763676;80;21239;-79
2022/02/09 17:23:15;;;;;;;15.53;5.37;;;;;;;3.69;71.99;100005.28;1763549;80;21007;-79
2022/02/09 17:25:44;;;;;;;14.47;6.40;;;;;;;3.72;71.97;100010.70;1785837;80;21822;-81
2022/02/09 17:28:14;;;;;;;12.60;6.65;;;;;;;3.72;71.90;100012.03;1762774;80;21030;-77
2022/02/09 17:30:58;;;;;;;18.00;7.45;;;;;;;3.72;71.91;100013.36;1785195;80;21532;-79
2022/02/09 17:35:44;;;;;;;12.35;6.70;;;;;;;3.72;71.87;100000.88;1785927;80;21006;-77
2022/02/09 17:38:21;;;;;;;12.95;6.17;;;;;;;3.74;71.90;100011.33;1786272;80;21137;-80
2022/02/09 17:57:01;;;;;;;13.28;6.00;;;;;;;3.80;71.03;100009.19;1767562;80;21566;-77
2022/02/09 17:59:30;;;;;;;13.45;6.42;;;;;;;3.80;70.99;100007.35;1785972;80;21524;-78
2022/02/09 18:01:54;;;;;;;10.38;5.45;;;;;;;3.81;70.99;100015.66;1764106;80;21071;-79
2022/02/09 18:04:23;;;;;;;11.57;5.12;;;;;;;3.81;70.72;100012.17;1786054;80;21172;-79
2022/02/09 18:07:05;;;;;;;13.43;5.50;;;;;;;3.81;70.41;100014.32;1786040;80;20954;-79
2022/02/09 18:09:39;;;;;;;11.57;5.85;;;;;;;3.82;70.08;100021.30;1785723;80;21091;-80
2022/02/09 18:12:37;;;;;;;10.98;5.87;;;;;;;3.84;69.74;100023.23;1785197;80;20946;-78
2022/02/09 18:31:09;;;;;;;11.33;4.00;;;;;;;3.93;68.50;100008.73;1771225;80;21404;-78
2022/02/09 18:33:52;;;;;;;8.55;4.78;;;;;;;3.91;68.37;100013.95;1753374;81;20947;-76
2022/02/09 18:42:30;;;;;;;7.05;3.62;;;;;;;3.88;68.40;100013.85;1771381;81;21085;-79
2022/02/09 18:44:10;;;;;;;6.33;2.95;;;;;;;3.87;68.41;100014.87;1768532;81;20974;-77
2022/02/09 18:46:51;;;;;;;7.60;3.80;;;;;;;3.86;68.39;100014.55;1753784;81;21050;-78
2022/02/09 18:57:24;;;;;;;12.15;4.03;;;;;;;3.83;68.54;100018.95;1723817;82;22269;-72
2022/02/09 18:59:39;;;;;;;9.25;4.62;;;;;;;3.82;68.60;100014.64;1718798;82;20986;-78
2022/02/09 19:04:41;;;;;;;9.55;4.28;;;;;;;3.81;68.68;100009.51;1771459;81;21033;-77
2022/02/09 19:20:26;;;;;;;11.55;4.53;;;;;;;3.75;69.12;100004.97;1770505;80;21074;-77
2022/02/09 19:30:55;;;;;;;9.78;3.77;;;;;;;3.69;69.49;100017.75;1726894;82;21049;-79
2022/02/09 19:46:44;;;;;;;9.50;3.87;;;;;;;3.54;70.07;100026.36;1753544;81;21045;-79
2022/02/09 19:49:14;;;;;;;8.23;3.77;;;;;;;3.51;70.17;100023.06;1771485;81;21085;-91
2022/02/09 19:51:42;;;;;;;10.75;4.28;;;;;;;3.50;70.26;100033.37;1753053;81;20982;-86
2022/02/09 19:56:52;;;;;;;8.30;4.30;;;;;;;3.51;70.38;100038.19;1771227;81;21079;-90
2022/02/09 19:59:21;;;;;;;7.97;4.75;;;;;;;3.53;70.40;100027.37;1771548;80;21046;-86
2022/02/09 20:01:49;;;;;;;13.95;6.78;;;;;;;3.54;70.41;100020.54;1754334;81;21161;-91
2022/02/09 20:04:19;;;;;;;8.88;4.17;;;;;;;3.58;70.34;100022.29;1771937;81;21766;-89
2022/02/09 20:06:45;;;;;;;9.60;5.45;;;;;;;3.61;70.23;100009.91;1772070;80;21094;-85
2022/02/09 20:09:13;;;;;;;9.80;5.08;;;;;;;3.63;70.23;100008.72;1754242;81;21035;-86
2022/02/09 20:11:42;;;;;;;9.65;5.12;;;;;;;3.67;70.17;100009.14;1771791;80;21094;-90
2022/02/09 20:14:14;;;;;;;11.15;4.92;;;;;;;3.69;70.00;100009.27;1771515;81;20986;-88
2022/02/09 20:16:41;;;;;;;9.50;5.78;;;;;;;3.72;69.95;100001.39;1772558;79;20983;-87
2022/02/09 20:19:07;;;;;;;7.08;5.28;;;;;;;3.74;69.84;99998.83;1771583;81;21006;-85
2022/02/09 20:21:34;;;;;;;5.67;4.33;;;;;;;3.76;69.67;100002.13;1753689;81;21018;-84
2022/02/09 20:24:02;;;;;;;8.53;4.83;;;;;;;3.78;69.59;99999.27;1771466;81;21046;-80
2022/02/09 20:26:29;;;;;;;8.73;5.83;;;;;;;3.78;69.52;99992.12;1753915;81;21081;-89
2022/02/09 20:29:05;;;;;;;13.80;6.17;;;;;;;3.79;69.45;99983.63;1753964;81;20987;-87
2022/02/09 20:31:31;;;;;;;8.93;5.83;;;;;;;3.79;69.40;99991.07;1753355;81;20931;-77
2022/02/09 20:34:04;;;;;;;19.05;6.30;;;;;;;3.78;69.42;99991.30;1770833;80;21018;-76
2022/02/09 20:36:26;;;;;;;9.05;5.08;;;;;;;3.77;69.50;99986.98;1769311;80;21066;-77
2022/02/09 20:38:58;;;;;;;9.60;5.85;;;;;;;3.77;69.51;99993.64;1752339;81;21035;-75
2022/02/09 20:41:21;;;;;;;9.88;5.42;;;;;;;3.77;69.54;99985.15;1769406;80;21499;-78
2022/02/09 20:44:05;;;;;;;10.23;5.10;;;;;;;3.78;69.59;99984.14;1771251;80;21050;-74
2022/02/09 20:46:30;;;;;;;14.33;6.05;;;;;;;3.79;69.54;99991.07;1753645;80;21304;-74
2022/02/09 20:48:56;;;;;;;10.82;5.35;;;;;;;3.78;69.48;99980.66;1771559;81;20979;-73
2022/02/09 20:51:24;;;;;;;10.63;5.62;;;;;;;3.79;69.53;99990.28;1771471;81;21758;-73
2022/02/09 20:53:52;;;;;;;13.10;6.67;;;;;;;3.79;69.54;99984.96;1753932;81;21035;-74
2022/02/09 20:56:19;;;;;;;16.48;6.80;;;;;;;3.81;69.60;99984.23;1771609;81;21038;-74
2022/02/09 20:58:46;;;;;;;14.43;8.60;;;;;;;3.83;69.58;99979.55;1771441;81;21047;-74
2022/02/09 21:01:17;;;;;;;16.62;7.42;;;;;;;3.85;69.55;99976.98;1771746;81;21081;-76
2022/02/09 21:03:48;;;;;;;9.95;5.50;;;;;;;3.87;69.50;99982.94;1752349;81;21096;-77
2022/02/09 21:08:54;;;;;;;10.25;5.87;;;;;;;3.87;69.41;99987.44;1771351;81;21023;-79
2022/02/09 21:14:00;;;;;;;9.18;6.40;;;;;;;3.83;69.55;99988.36;1739839;81;21642;-79
2022/02/09 21:19:35;;;;;;;10.25;6.33;;;;;;;3.83;69.58;99990.19;1716766;83;21529;-86
2022/02/09 21:22:18;;;;;;;9.50;5.97;;;;;;;3.83;69.64;99988.36;1777229;80;21545;-83
2022/02/09 21:31:19;;;;;;;12.82;6.75;;;;;;;3.88;69.75;99989.09;1700562;83;21198;-85
2022/02/09 22:06:12;;;;;;;11.12;6.53;;;;;;;3.85;70.53;99949.05;1737584;82;21046;-87
2022/02/09 22:16:16;;;;;;;12.43;7.75;;;;;;;3.89;70.61;99957.45;1596023;89;21083;-80
2022/02/09 22:21:16;;;;;;;14.53;7.53;;;;;;;3.95;71.17;99964.13;1738269;82;21035;-77
2022/02/09 22:26:31;;;;;;;16.85;7.95;;;;;;;3.94;71.21;99961.15;1701044;82;21007;-76
2022/02/09 22:28:38;;;;;;;12.80;7.37;;;;;;;3.90;71.36;99964.41;1736835;82;21002;-81
2022/02/09 22:55:18;;;;;;;15.63;8.45;;;;;;;3.82;73.75;99926.02;1741077;82;20962;-74
2022/02/09 23:00:17;;;;;;;15.08;7.42;;;;;;;3.82;74.12;99918.05;1741081;82;21636;-72
2022/02/09 23:02:52;;;;;;;12.07;7.72;;;;;;;3.83;74.28;99913.04;1741116;82;21880;-88
2022/02/09 23:05:39;;;;;;;13.05;8.80;;;;;;;3.83;74.59;99906.39;1740354;82;21557;-84
2022/02/09 23:11:05;;;;;;;;;;;;;;;3.78;74.91;99914.97;1739483;81;22253;-82
2022/02/09 23:13:15;;;;;;;25.55;13.38;;;;;;;3.78;75.18;99910.16;1744715;81;20527;-83
2022/02/09 23:15:41;;;;;;;15.70;8.25;;;;;;;3.79;75.39;99903.83;1760694;81;21403;-85
